createdAt,value
2023-02-14T00:11:59.341Z,87.3
2023-02-14T00:27:09.749Z,87.3
2023-02-14T00:42:19.107Z,87.5
2023-02-14T00:57:28.368Z,87.3
2023-02-14T01:12:37.924Z,87.2
2023-02-14T01:27:47.629Z,87.3
2023-02-14T01:42:57.286Z,87.3
2023-02-14T01:58:06.499Z,87.3
2023-02-14T02:13:16.402Z,87.2
2023-02-14T02:28:25.952Z,87.3
2023-02-14T02:43:35.053Z,87.3
2023-02-14T02:59:51.225Z,86.1
2023-02-14T03:15:01.648Z,87.6
2023-02-14T03:30:11.240Z,87.7
2023-02-14T03:45:24.073Z,87.7
2023-02-14T04:00:33.783Z,87.6
2023-02-14T04:15:43.809Z,87.6
2023-02-14T04:30:53.017Z,87.1
2023-02-14T04:46:01.891Z,86.9
2023-02-14T05:01:11.436Z,87.1
2023-02-14T05:16:21.666Z,87.2
2023-02-14T05:31:31.702Z,87.6
2023-02-14T05:46:41.036Z,87.8
2023-02-14T06:01:50.041Z,87.8
2023-02-14T06:16:59.441Z,87.6
2023-02-14T06:32:10.558Z,87.7
2023-02-14T06:47:20.064Z,87.7
2023-02-14T07:02:30.175Z,87.7
2023-02-14T07:17:38.931Z,87.7
2023-02-14T07:32:48.684Z,87.4
2023-02-14T07:47:57.946Z,87.1
2023-02-14T08:03:10.491Z,86.5
2023-02-14T08:18:19.866Z,86.4
2023-02-14T08:33:29.379Z,86.1
2023-02-14T08:48:40.395Z,85.9
2023-02-14T09:03:51.701Z,85.7
2023-02-14T09:19:02.100Z,85.6
2023-02-14T09:34:11.658Z,85.9
2023-02-14T09:49:21.410Z,85.2
2023-02-14T10:04:31.709Z,85
2023-02-14T10:19:41.247Z,84.8
2023-02-14T10:34:51.034Z,84.6
2023-02-14T10:50:00.963Z,84.4
2023-02-14T11:05:10.776Z,84.1
2023-02-14T11:20:21.284Z,83.9
2023-02-14T11:35:30.655Z,83.3
2023-02-14T11:50:41.168Z,83.2
2023-02-14T12:05:51.103Z,82.8
2023-02-14T12:21:03.583Z,80
2023-02-14T12:36:14.816Z,78.2
2023-02-14T12:51:24.032Z,78.3
2023-02-14T13:06:33.780Z,78.5
2023-02-14T13:21:43.296Z,78.3
2023-02-14T13:36:55.305Z,72.7
2023-02-14T13:52:10.613Z,68.1
2023-02-14T14:07:19.849Z,70
2023-02-14T14:22:28.223Z,71.4
2023-02-14T14:37:36.557Z,76.5
2023-02-14T14:52:44.798Z,78.9
2023-02-14T15:07:54.177Z,79.3
2023-02-14T15:23:03.296Z,80.5
2023-02-14T15:38:12.377Z,81.1
2023-02-14T15:53:21.909Z,81.4
2023-02-14T16:08:31.433Z,81.6
2023-02-14T16:23:40.863Z,82
2023-02-14T16:38:50.025Z,82.5
2023-02-14T16:53:59.909Z,83
2023-02-14T17:09:10.761Z,83.2
2023-02-14T17:24:20.189Z,84
2023-02-14T17:39:30.135Z,83.7
2023-02-14T17:54:39.292Z,84
2023-02-14T18:09:49.237Z,84.2
2023-02-14T18:24:58.234Z,84.4
2023-02-14T18:40:07.604Z,84.5
2023-02-14T18:55:17.510Z,84.7
2023-02-14T19:10:26.859Z,85
2023-02-14T19:25:36.201Z,85
2023-02-14T19:40:45.770Z,85
2023-02-14T19:55:54.715Z,84.9
2023-02-14T20:11:04.615Z,84.8
2023-02-14T20:26:13.746Z,85.2
2023-02-14T20:41:23.392Z,85.3
2023-02-14T20:57:22.538Z,84.4
2023-02-14T21:12:32.864Z,85.4
2023-02-14T21:27:42.520Z,85.5
2023-02-14T21:42:52.081Z,85.5
2023-02-14T21:58:01.678Z,85.4
2023-02-14T22:13:11.265Z,85.5
2023-02-14T22:28:20.901Z,85.5
2023-02-14T22:43:31.353Z,85.4
2023-02-14T22:58:47.042Z,85.7
2023-02-14T23:13:56.941Z,85.8
2023-02-14T23:29:06.601Z,85.8
2023-02-14T23:44:15.758Z,85.8
2023-02-14T23:59:24.853Z,85.9
